createdAt,value
2018-05-13T00:00:19.946Z,7.90
2018-05-13T00:02:12.887Z,8.40
2018-05-13T00:03:12.898Z,8.80
2018-05-13T00:05:05.863Z,9.00
2018-05-13T00:06:05.856Z,7.60
2018-05-13T00:07:58.807Z,11.20
2018-05-13T00:08:58.800Z,8.20
2018-05-13T00:10:51.735Z,8.30
2018-05-13T00:11:51.752Z,7.80
2018-05-13T00:13:44.705Z,8.20
2018-05-13T00:14:44.704Z,8.20
2018-05-13T00:16:37.639Z,9.00
2018-05-13T00:17:37.661Z,7.90
2018-05-13T00:19:30.610Z,7.50
2018-05-13T00:20:30.600Z,8.30
2018-05-13T00:22:23.535Z,8.80
2018-05-13T00:23:23.554Z,10.80
2018-05-13T00:25:16.503Z,8.10
2018-05-13T00:26:16.499Z,7.60
2018-05-13T00:28:09.467Z,8.60
2018-05-13T00:29:09.448Z,9.80
2018-05-13T00:31:02.390Z,10.60
2018-05-13T00:32:02.399Z,8.30
2018-05-13T00:33:55.355Z,11.00
2018-05-13T00:34:55.352Z,9.50
2018-05-13T00:36:48.286Z,8.40
2018-05-13T00:37:48.293Z,9.80
2018-05-13T00:39:41.243Z,9.00
2018-05-13T00:40:41.242Z,9.10
2018-05-13T00:42:34.179Z,8.70
2018-05-13T00:43:34.192Z,8.30
2018-05-13T00:45:27.191Z,9.70
2018-05-13T00:46:27.188Z,8.90
2018-05-13T00:48:20.119Z,8.80
2018-05-13T00:49:20.133Z,9.40
2018-05-13T00:51:13.087Z,9.50
2018-05-13T00:52:13.084Z,9.80
2018-05-13T00:54:06.040Z,8.90
2018-05-13T00:55:06.026Z,8.60
2018-05-13T00:56:58.963Z,9.60
2018-05-13T00:57:58.972Z,10.80
2018-05-13T00:59:51.927Z,9.00
2018-05-13T01:00:51.922Z,8.90
2018-05-13T01:02:44.897Z,8.50
2018-05-13T01:03:44.866Z,8.80
2018-05-13T01:05:37.824Z,10.50
2018-05-13T01:06:37.812Z,10.40
2018-05-13T01:08:30.743Z,9.60
2018-05-13T01:09:30.759Z,10.60
2018-05-13T01:11:23.711Z,8.90
2018-05-13T01:12:23.709Z,9.30
2018-05-13T01:14:16.662Z,10.20
2018-05-13T01:15:16.652Z,10.30
2018-05-13T01:17:09.598Z,10.60
2018-05-13T01:18:09.615Z,11.80
2018-05-13T01:20:02.560Z,9.90
2018-05-13T01:21:02.550Z,10.30
2018-05-13T01:22:55.501Z,10.00
2018-05-13T01:23:55.516Z,11.40
2018-05-13T01:25:48.465Z,9.70
2018-05-13T01:26:48.457Z,10.80
2018-05-13T01:28:41.402Z,11.50
2018-05-13T01:29:41.412Z,9.90
2018-05-13T01:31:34.368Z,9.50
2018-05-13T01:32:34.368Z,10.60
2018-05-13T01:34:27.323Z,10.00
2018-05-13T01:35:27.317Z,10.70
2018-05-13T01:37:20.251Z,10.50
2018-05-13T01:38:20.263Z,11.80
2018-05-13T01:40:13.219Z,12.50
2018-05-13T01:41:13.212Z,11.20
2018-05-13T01:43:06.146Z,9.80
2018-05-13T01:44:06.161Z,9.40
2018-05-13T01:45:59.115Z,10.00
2018-05-13T01:46:59.117Z,9.30
2018-05-13T03:48:07.985Z,11.20
2018-05-13T03:49:07.965Z,18.10
2018-05-13T03:51:00.905Z,18.10
2018-05-13T03:52:00.891Z,18.80
2018-05-13T03:53:53.868Z,17.70
2018-05-13T03:54:53.822Z,16.80
2018-05-13T03:56:46.780Z,20.40
2018-05-13T03:57:46.760Z,17.10
2018-05-13T03:59:39.697Z,18.40
2018-05-13T04:00:39.712Z,17.60
2018-05-13T04:02:32.654Z,16.70
2018-05-13T04:03:32.646Z,17.20
2018-05-13T04:05:25.566Z,17.60
2018-05-13T04:06:25.588Z,16.00
2018-05-13T04:08:18.541Z,19.50
2018-05-13T04:09:18.530Z,20.70
2018-05-13T04:11:11.481Z,19.20
2018-05-13T04:12:11.472Z,17.60
2018-05-13T04:14:04.405Z,17.80
2018-05-13T04:15:04.416Z,18.80
2018-05-13T04:16:57.368Z,21.00
2018-05-13T04:17:57.364Z,17.40
2018-05-13T04:19:50.301Z,16.20
2018-05-13T04:20:50.310Z,18.00
2018-05-13T04:22:43.266Z,19.50
2018-05-13T04:23:43.258Z,16.20
2018-05-13T04:25:36.194Z,20.50
2018-05-13T04:26:36.204Z,19.70
2018-05-13T04:28:29.165Z,21.40
2018-05-13T04:29:29.165Z,21.50
2018-05-13T04:31:22.164Z,19.40
2018-05-13T04:32:22.105Z,18.00
2018-05-13T04:34:15.062Z,19.60
2018-05-13T04:35:15.056Z,21.20
2018-05-13T04:37:08.033Z,21.60
2018-05-13T04:38:08.009Z,20.30
2018-05-13T04:40:00.947Z,22.40
2018-05-13T04:41:00.965Z,20.90
2018-05-13T04:42:53.908Z,21.00
2018-05-13T04:43:53.910Z,20.10
2018-05-13T04:45:46.837Z,21.00
2018-05-13T04:46:46.852Z,23.30
2018-05-13T04:48:39.802Z,29.00
2018-05-13T04:49:39.803Z,22.80
2018-05-13T04:51:32.731Z,23.30
2018-05-13T04:52:32.745Z,25.40
2018-05-13T04:54:25.704Z,24.50
2018-05-13T04:55:25.694Z,23.70
2018-05-13T04:57:18.629Z,23.90
2018-05-13T04:58:18.639Z,24.20
2018-05-13T05:00:11.595Z,26.40
2018-05-13T05:01:11.592Z,25.70
2018-05-13T05:03:04.558Z,29.40
2018-05-13T05:04:04.567Z,33.70
2018-05-13T05:05:57.471Z,33.80
2018-05-13T05:06:57.591Z,35.50
2018-05-13T05:08:50.498Z,31.30
2018-05-13T05:09:50.433Z,29.30
2018-05-13T05:11:43.381Z,27.00
2018-05-13T05:12:43.391Z,27.60
2018-05-13T05:14:36.339Z,26.60
2018-05-13T05:15:36.333Z,28.60
2018-05-13T05:17:29.278Z,27.50
2018-05-13T05:18:29.294Z,28.90
2018-05-13T05:20:22.247Z,26.70
2018-05-13T05:21:22.241Z,27.50
2018-05-13T05:23:15.188Z,27.30
2018-05-13T05:24:15.184Z,28.80
2018-05-13T05:26:08.118Z,27.40
2018-05-13T05:27:08.130Z,26.20
2018-05-13T05:29:01.087Z,31.20
2018-05-13T05:30:01.082Z,27.90
2018-05-13T05:31:54.014Z,24.30
2018-05-13T05:32:54.029Z,27.40
2018-05-13T05:34:46.979Z,25.50
2018-05-13T05:35:47.049Z,25.70
2018-05-13T05:37:39.914Z,27.20
2018-05-13T05:38:39.926Z,24.30
2018-05-13T05:40:32.885Z,25.00
2018-05-13T05:41:32.874Z,25.90
2018-05-13T05:43:25.832Z,22.70
2018-05-13T05:44:25.828Z,24.10
2018-05-13T05:46:18.785Z,25.20
2018-05-13T05:47:18.782Z,26.30
2018-05-13T05:49:11.730Z,26.70
2018-05-13T05:50:11.727Z,25.50
2018-05-13T05:52:04.672Z,27.60
2018-05-13T05:53:04.686Z,26.70
2018-05-13T05:54:57.638Z,28.30
2018-05-13T05:55:57.629Z,26.00
2018-05-13T05:57:50.568Z,28.70
2018-05-13T05:58:50.584Z,30.60
2018-05-13T06:00:43.537Z,29.20
2018-05-13T06:01:43.542Z,28.20
2018-05-13T06:03:36.470Z,29.40
2018-05-13T06:04:36.487Z,27.50
2018-05-13T06:06:29.437Z,29.40
2018-05-13T06:07:29.431Z,31.90
2018-05-13T06:09:22.390Z,31.20
2018-05-13T06:10:22.385Z,33.00
2018-05-13T06:12:15.356Z,31.70
2018-05-13T06:13:15.345Z,29.90
2018-05-13T06:15:08.303Z,32.30
2018-05-13T06:16:08.298Z,32.90
2018-05-13T06:18:01.238Z,32.10
2018-05-13T06:19:01.255Z,32.90
2018-05-13T06:20:54.229Z,33.30
2018-05-13T06:21:54.222Z,31.90
2018-05-13T06:23:47.155Z,35.40
2018-05-13T06:24:47.175Z,31.40
2018-05-13T06:26:40.135Z,34.70
2018-05-13T06:27:40.134Z,35.40
2018-05-13T06:29:33.081Z,36.10
2018-05-13T06:30:33.080Z,37.10
2018-05-13T06:32:26.023Z,37.80
2018-05-13T06:33:26.034Z,35.30
2018-05-13T06:35:18.999Z,36.60
2018-05-13T06:36:18.991Z,38.40
2018-05-13T06:38:11.931Z,35.40
2018-05-13T06:39:11.953Z,36.10
2018-05-13T06:41:04.903Z,38.10
2018-05-13T06:42:04.904Z,37.70
2018-05-13T06:43:57.845Z,38.00
2018-05-13T06:44:57.856Z,36.00
2018-05-13T06:46:50.870Z,35.40
2018-05-13T06:47:50.822Z,34.50
2018-05-13T06:49:43.782Z,37.60
2018-05-13T06:50:43.770Z,36.20
2018-05-13T06:52:36.724Z,36.70
2018-05-13T06:53:36.800Z,35.00
2018-05-13T06:55:29.683Z,38.80
2018-05-13T06:56:29.680Z,34.60
2018-05-13T06:58:22.626Z,36.00
2018-05-13T06:59:22.633Z,34.40
2018-05-13T07:01:15.595Z,38.30
2018-05-13T07:02:15.593Z,38.00
2018-05-13T07:04:08.540Z,34.30
2018-05-13T07:05:08.557Z,37.10
2018-05-13T07:07:01.528Z,32.80
2018-05-13T07:08:01.513Z,34.30
2018-05-13T07:09:54.483Z,34.70
2018-05-13T07:10:54.471Z,35.50
2018-05-13T07:12:47.420Z,37.50
2018-05-13T07:13:47.435Z,36.50
2018-05-13T07:15:40.397Z,36.70
2018-05-13T07:16:40.392Z,37.10
2018-05-13T07:18:33.329Z,37.50
2018-05-13T07:19:33.346Z,37.90
2018-05-13T07:21:26.306Z,36.60
2018-05-13T07:22:26.302Z,33.40
2018-05-13T07:24:19.241Z,37.20
2018-05-13T07:25:19.261Z,34.60
2018-05-13T07:27:12.219Z,37.40
2018-05-13T07:28:12.218Z,36.40
2018-05-13T07:30:05.174Z,37.40
2018-05-13T07:31:05.169Z,38.80
2018-05-13T07:32:58.121Z,37.20
2018-05-13T07:33:58.141Z,38.40
2018-05-13T07:35:51.095Z,40.10
2018-05-13T07:36:51.094Z,38.60
2018-05-13T07:38:44.055Z,39.00
2018-05-13T07:39:44.056Z,39.40
2018-05-13T07:41:37.008Z,39.60
2018-05-13T07:42:37.005Z,41.40
2018-05-13T07:44:29.952Z,41.70
2018-05-13T07:45:29.964Z,43.60
2018-05-13T07:47:22.923Z,45.60
2018-05-13T07:48:22.921Z,42.50
2018-05-13T07:50:15.884Z,46.40
2018-05-13T07:51:15.872Z,46.00
2018-05-13T07:53:08.816Z,51.50
2018-05-13T07:54:08.827Z,50.20
2018-05-13T07:56:01.788Z,50.30
2018-05-13T07:57:01.779Z,49.80
2018-05-13T07:58:54.717Z,53.10
2018-05-13T07:59:54.734Z,50.30
2018-05-13T08:01:47.684Z,55.50
2018-05-13T08:02:47.681Z,55.90
2018-05-13T08:04:40.628Z,51.30
2018-05-13T08:05:40.644Z,50.80
2018-05-13T08:07:33.595Z,51.50
2018-05-13T08:08:33.593Z,51.40
2018-05-13T08:10:26.569Z,56.10
2018-05-13T08:11:26.556Z,54.80
2018-05-13T08:13:19.499Z,55.80
2018-05-13T08:14:19.505Z,54.50
2018-05-13T08:16:12.463Z,52.40
2018-05-13T08:17:12.459Z,55.70
2018-05-13T08:19:05.394Z,57.60
2018-05-13T08:20:05.414Z,56.80
2018-05-13T08:21:58.373Z,58.60
2018-05-13T08:22:58.369Z,57.40
2018-05-13T08:24:51.304Z,54.50
2018-05-13T08:25:51.316Z,57.50
2018-05-13T08:27:44.274Z,55.60
2018-05-13T08:28:44.273Z,57.30
2018-05-13T08:30:37.205Z,61.80
2018-05-13T08:31:37.223Z,59.40
2018-05-13T08:33:30.182Z,62.00
2018-05-13T08:34:30.169Z,58.10
2018-05-13T08:36:23.125Z,62.70
2018-05-13T08:37:23.121Z,61.90
2018-05-13T08:39:16.055Z,67.00
2018-05-13T08:40:16.137Z,67.40
2018-05-13T08:42:09.024Z,68.00
2018-05-13T08:43:09.021Z,69.80
2018-05-13T08:45:01.962Z,68.00
2018-05-13T08:46:01.974Z,67.20
2018-05-13T08:47:54.921Z,64.20
2018-05-13T08:48:54.917Z,64.70
2018-05-13T08:50:47.861Z,65.70
2018-05-13T08:51:47.898Z,69.20
2018-05-13T08:53:40.827Z,65.50
2018-05-13T08:54:40.826Z,63.20
2018-05-13T08:56:33.774Z,61.90
2018-05-13T08:57:33.771Z,65.20
2018-05-13T08:59:26.708Z,64.00
2018-05-13T09:00:26.723Z,65.50
2018-05-13T09:02:19.676Z,66.10
2018-05-13T09:03:19.676Z,64.90
2018-05-13T09:05:12.613Z,66.10
2018-05-13T09:06:12.626Z,65.20
2018-05-13T09:08:05.588Z,65.20
2018-05-13T09:09:05.586Z,69.30
2018-05-13T09:10:58.524Z,69.00
2018-05-13T09:11:58.541Z,68.00
2018-05-13T09:13:51.494Z,66.60
2018-05-13T09:14:51.493Z,73.00
2018-05-13T09:16:44.443Z,69.80
2018-05-13T09:17:44.434Z,68.30
2018-05-13T09:19:37.379Z,70.90
2018-05-13T09:20:37.437Z,71.40
2018-05-13T09:22:30.339Z,68.20
2018-05-13T09:23:30.331Z,70.00
2018-05-13T09:25:23.274Z,69.70
2018-05-13T09:26:23.285Z,69.00
2018-05-13T09:28:16.241Z,67.20
2018-05-13T09:29:16.251Z,65.70
2018-05-13T09:31:09.177Z,67.70
2018-05-13T09:32:09.200Z,68.70
2018-05-13T09:34:02.147Z,69.20
2018-05-13T09:35:02.142Z,66.00
2018-05-13T09:36:55.115Z,72.30
2018-05-13T09:37:55.102Z,67.40
2018-05-13T09:39:48.039Z,68.50
2018-05-13T09:40:48.059Z,68.20
2018-05-13T09:42:41.503Z,69.10
2018-05-13T09:43:41.504Z,70.70
2018-05-13T09:45:34.440Z,70.00
2018-05-13T09:46:34.455Z,69.20
2018-05-13T09:48:27.435Z,75.60
2018-05-13T09:49:27.404Z,71.30
2018-05-13T09:51:20.346Z,73.20
2018-05-13T09:52:20.366Z,70.10
2018-05-13T09:54:13.305Z,71.20
2018-05-13T09:55:13.295Z,69.50
2018-05-13T09:57:06.246Z,67.40
2018-05-13T09:58:06.244Z,70.80
2018-05-13T09:59:59.176Z,68.60
2018-05-13T10:00:59.196Z,70.30
2018-05-13T10:02:52.170Z,64.70
2018-05-13T10:03:52.142Z,67.40
2018-05-13T10:05:45.092Z,63.30
2018-05-13T10:06:45.094Z,65.00
2018-05-13T10:08:38.045Z,62.60
2018-05-13T10:09:38.061Z,63.60
2018-05-13T10:11:30.997Z,57.70
2018-05-13T10:12:31.000Z,61.30
2018-05-13T10:14:23.965Z,58.70
2018-05-13T10:15:24.002Z,56.50
2018-05-13T10:17:16.934Z,53.90
2018-05-13T10:18:16.915Z,51.90
2018-05-13T10:20:09.856Z,49.70
2018-05-13T10:21:09.867Z,52.00
2018-05-13T10:23:02.825Z,50.00
2018-05-13T10:24:02.821Z,49.80
2018-05-13T10:25:55.758Z,48.20
2018-05-13T10:26:55.769Z,47.50
2018-05-13T10:28:48.743Z,51.00
2018-05-13T10:29:48.739Z,46.20
2018-05-13T10:31:41.680Z,44.00
2018-05-13T10:32:41.694Z,48.30
2018-05-13T10:34:34.649Z,47.40
2018-05-13T10:35:34.644Z,49.70
2018-05-13T10:37:27.593Z,47.20
2018-05-13T10:38:27.599Z,47.90
2018-05-13T10:40:20.557Z,49.50
2018-05-13T10:41:20.550Z,48.90
2018-05-13T10:43:13.508Z,48.60
2018-05-13T10:44:13.513Z,47.90
2018-05-13T10:46:06.443Z,52.00
2018-05-13T10:47:06.451Z,53.90
2018-05-13T10:48:59.400Z,51.30
2018-05-13T10:49:59.398Z,49.00
2018-05-13T10:51:52.344Z,54.30
2018-05-13T10:52:52.350Z,52.70
2018-05-13T10:54:45.308Z,53.20
2018-05-13T10:55:45.304Z,50.60
2018-05-13T10:57:38.294Z,52.30
2018-05-13T10:58:38.271Z,53.40
2018-05-13T11:00:31.223Z,49.00
2018-05-13T11:01:31.218Z,53.20
2018-05-13T11:03:24.196Z,49.00
2018-05-13T11:04:24.174Z,48.60
2018-05-13T11:06:17.123Z,50.60
2018-05-13T11:07:17.133Z,47.30
2018-05-13T11:09:10.100Z,47.20
2018-05-13T11:10:10.167Z,45.10
2018-05-13T11:12:03.023Z,49.90
2018-05-13T11:13:03.038Z,45.00
2018-05-13T11:14:55.997Z,44.00
2018-05-13T11:15:55.990Z,47.30
2018-05-13T11:17:49.436Z,44.50
2018-05-13T11:18:49.449Z,45.60
2018-05-13T11:20:42.495Z,45.00
2018-05-13T11:21:42.399Z,49.50
2018-05-13T11:23:35.377Z,46.70
2018-05-13T11:24:35.350Z,45.40
2018-05-13T11:26:28.291Z,43.90
2018-05-13T11:27:28.315Z,44.60
2018-05-13T11:29:21.257Z,45.90
2018-05-13T11:30:21.252Z,48.60
2018-05-13T11:32:14.183Z,42.90
2018-05-13T11:33:14.196Z,47.30
2018-05-13T11:35:07.188Z,43.70
2018-05-13T11:36:07.177Z,42.00
2018-05-13T11:38:00.125Z,40.90
2018-05-13T11:39:00.141Z,40.00
2018-05-13T11:40:53.101Z,43.80
2018-05-13T11:41:53.089Z,41.30
2018-05-13T11:43:46.054Z,42.90
2018-05-13T11:44:46.038Z,41.20
2018-05-13T11:46:39.068Z,42.10
2018-05-13T11:47:38.990Z,38.90
2018-05-13T11:49:31.940Z,41.60
2018-05-13T11:50:31.931Z,42.80
2018-05-13T11:52:24.867Z,41.50
2018-05-13T11:53:24.880Z,42.20
2018-05-13T11:55:17.849Z,39.10
2018-05-13T11:56:17.839Z,38.80
2018-05-13T11:58:10.773Z,38.10
2018-05-13T11:59:10.797Z,38.60
2018-05-13T12:01:03.741Z,38.50
2018-05-13T12:02:03.744Z,38.00
2018-05-13T12:03:56.688Z,36.70
2018-05-13T12:04:56.691Z,38.60
2018-05-13T12:06:49.625Z,35.90
2018-05-13T12:07:49.637Z,33.90
2018-05-13T12:09:42.588Z,34.50
2018-05-13T12:10:42.593Z,34.60
2018-05-13T12:12:35.523Z,34.30
2018-05-13T12:13:35.541Z,33.50
2018-05-13T12:15:28.500Z,34.30
2018-05-13T12:16:28.499Z,35.60
2018-05-13T12:18:21.424Z,32.70
2018-05-13T12:19:21.440Z,32.90
2018-05-13T12:21:14.403Z,33.00
2018-05-13T12:22:14.398Z,33.00
2018-05-13T12:24:07.345Z,40.00
2018-05-13T12:25:07.344Z,33.50
2018-05-13T12:27:00.287Z,34.20
2018-05-13T12:28:00.299Z,33.50
2018-05-13T12:29:53.269Z,32.90
2018-05-13T12:30:53.257Z,35.10
2018-05-13T12:32:46.200Z,35.20
2018-05-13T12:33:46.214Z,33.70
2018-05-13T12:35:39.168Z,34.30
2018-05-13T12:36:39.166Z,35.70
2018-05-13T12:38:32.110Z,37.60
2018-05-13T12:39:32.124Z,34.50
2018-05-13T12:41:25.078Z,37.30
2018-05-13T12:42:25.076Z,36.90
2018-05-13T12:44:18.033Z,38.90
2018-05-13T12:45:18.033Z,42.90
2018-05-13T12:47:10.974Z,41.40
2018-05-13T12:48:10.986Z,39.50
2018-05-13T12:50:04.015Z,39.20
2018-05-13T12:51:03.936Z,38.80
2018-05-13T12:52:56.886Z,40.00
2018-05-13T12:53:56.893Z,42.10
2018-05-13T12:55:49.856Z,42.60
2018-05-13T12:56:49.848Z,40.90
2018-05-13T12:58:42.798Z,41.90
2018-05-13T12:59:42.815Z,51.00
2018-05-13T13:01:35.764Z,44.90
2018-05-13T13:02:35.762Z,39.90
2018-05-13T13:04:28.721Z,43.40
2018-05-13T13:05:28.715Z,41.30
2018-05-13T13:07:21.694Z,43.00
2018-05-13T13:08:21.681Z,43.90
2018-05-13T13:10:14.644Z,44.40
2018-05-13T13:11:14.633Z,44.90
2018-05-13T13:13:07.574Z,42.60
2018-05-13T13:14:07.599Z,44.80
2018-05-13T13:16:00.542Z,44.60
2018-05-13T13:17:00.538Z,46.50
2018-05-13T13:18:53.484Z,47.50
2018-05-13T13:19:53.554Z,44.40
2018-05-13T13:21:46.439Z,46.80
2018-05-13T13:22:46.434Z,53.90
2018-05-13T13:24:39.367Z,50.40
2018-05-13T13:25:39.384Z,46.30
2018-05-13T13:27:32.346Z,47.70
2018-05-13T13:28:32.346Z,50.20
2018-05-13T13:30:25.379Z,48.80
2018-05-13T13:31:25.291Z,46.60
2018-05-13T13:33:18.221Z,47.30
2018-05-13T13:34:18.241Z,51.20
2018-05-13T13:36:11.198Z,47.30
2018-05-13T13:37:11.197Z,48.50
2018-05-13T13:39:04.122Z,50.30
2018-05-13T13:40:04.135Z,49.50
2018-05-13T13:41:57.090Z,49.50
2018-05-13T13:42:57.093Z,47.30
2018-05-13T13:44:50.020Z,49.90
2018-05-13T13:45:50.041Z,51.70
2018-05-13T13:47:42.985Z,51.90
2018-05-13T13:48:42.981Z,51.10
2018-05-13T13:50:35.930Z,51.30
2018-05-13T13:51:35.929Z,50.10
2018-05-13T13:53:28.867Z,50.20
2018-05-13T13:54:28.888Z,47.10
2018-05-13T13:56:21.838Z,50.80
2018-05-13T13:57:21.829Z,48.20
2018-05-13T13:59:14.768Z,46.20
2018-05-13T14:00:14.776Z,47.30
2018-05-13T14:02:07.779Z,49.80
2018-05-13T14:03:07.730Z,48.00
2018-05-13T14:05:00.666Z,44.10
2018-05-13T14:06:00.680Z,47.90
2018-05-13T14:07:53.642Z,46.90
2018-05-13T14:08:53.635Z,50.80
2018-05-13T14:10:46.584Z,47.40
2018-05-13T14:11:46.583Z,48.60
2018-05-13T14:13:40.013Z,48.20
2018-05-13T14:14:40.029Z,47.60
2018-05-13T14:16:32.982Z,47.20
2018-05-13T14:17:32.977Z,48.00
2018-05-13T14:19:25.916Z,46.90
2018-05-13T14:20:25.946Z,49.10
2018-05-13T14:22:18.883Z,47.40
2018-05-13T14:23:18.876Z,48.00
2018-05-13T14:25:11.820Z,51.80
2018-05-13T14:26:11.828Z,52.20
2018-05-13T14:28:04.783Z,50.60
2018-05-13T14:29:04.817Z,47.20
2018-05-13T14:30:57.743Z,47.30
2018-05-13T14:31:57.726Z,48.30
2018-05-13T14:33:50.664Z,45.00
2018-05-13T14:34:50.679Z,46.80
2018-05-13T14:36:43.629Z,45.00
2018-05-13T14:37:43.631Z,49.40
2018-05-13T14:39:36.580Z,48.00
2018-05-13T14:40:36.583Z,46.80
2018-05-13T14:42:29.539Z,45.70
2018-05-13T14:43:29.534Z,49.20
2018-05-13T14:45:22.493Z,46.40
2018-05-13T14:46:22.485Z,46.70
2018-05-13T14:48:15.432Z,43.90
2018-05-13T14:49:15.428Z,46.50
2018-05-13T14:51:08.393Z,44.70
2018-05-13T14:52:08.381Z,45.30
2018-05-13T14:54:01.304Z,47.20
2018-05-13T14:55:01.339Z,45.30
2018-05-13T14:56:54.283Z,43.40
2018-05-13T14:57:54.275Z,42.90
2018-05-13T14:59:47.209Z,41.70
2018-05-13T15:00:47.220Z,42.70
2018-05-13T15:02:40.175Z,43.30
2018-05-13T15:03:40.177Z,37.40
2018-05-13T15:05:33.106Z,37.70
2018-05-13T15:06:33.131Z,37.70
2018-05-13T15:08:26.082Z,37.50
2018-05-13T15:09:26.076Z,39.40
2018-05-13T15:11:19.025Z,39.30
2018-05-13T15:12:19.020Z,40.20
2018-05-13T15:14:11.956Z,39.70
2018-05-13T15:15:11.970Z,39.10
2018-05-13T15:17:04.929Z,41.40
2018-05-13T15:18:04.928Z,41.70
2018-05-13T15:19:57.870Z,40.40
2018-05-13T15:20:57.885Z,40.70
2018-05-13T15:22:50.839Z,43.30
2018-05-13T15:23:50.836Z,42.10
2018-05-13T15:25:43.773Z,40.90
2018-05-13T15:26:43.788Z,38.90
2018-05-13T15:28:36.743Z,37.50
2018-05-13T15:29:36.739Z,47.90
2018-05-13T15:31:29.694Z,37.40
2018-05-13T15:32:29.713Z,33.80
2018-05-13T15:34:22.706Z,35.30
2018-05-13T15:35:22.695Z,35.00
2018-05-13T15:37:15.671Z,35.20
2018-05-13T15:38:15.660Z,33.00
2018-05-13T15:40:08.597Z,35.80
2018-05-13T15:41:08.615Z,34.80
2018-05-13T15:43:01.716Z,36.30
2018-05-13T15:44:01.591Z,36.20
2018-05-13T15:45:54.506Z,33.10
2018-05-13T15:46:54.523Z,34.20
2018-05-13T15:48:47.473Z,32.80
2018-05-13T15:49:47.469Z,32.50
2018-05-13T15:51:40.418Z,31.00
2018-05-13T15:52:40.418Z,30.50
2018-05-13T15:54:33.370Z,29.50
2018-05-13T15:55:33.370Z,28.20
2018-05-13T15:57:26.334Z,28.50
2018-05-13T15:58:26.329Z,26.80
2018-05-13T16:00:19.247Z,29.00
2018-05-13T16:01:19.269Z,28.70
2018-05-13T16:03:12.232Z,29.80
2018-05-13T16:04:12.220Z,29.70
2018-05-13T16:06:05.152Z,32.00
2018-05-13T16:07:05.168Z,29.30
2018-05-13T16:08:58.126Z,32.30
2018-05-13T16:09:58.119Z,30.00
2018-05-13T16:11:51.068Z,32.30
2018-05-13T16:12:51.079Z,30.80
2018-05-13T16:14:44.521Z,33.60
2018-05-13T16:15:44.514Z,32.20
2018-05-13T16:17:37.477Z,35.20
2018-05-13T16:18:37.463Z,33.20
2018-05-13T16:20:30.405Z,35.50
2018-05-13T16:21:30.419Z,32.40
2018-05-13T16:23:23.385Z,32.00
2018-05-13T16:24:23.366Z,36.20
2018-05-13T16:26:16.300Z,33.20
2018-05-13T16:27:16.357Z,33.30
2018-05-13T16:29:09.339Z,34.80
2018-05-13T16:30:09.293Z,35.50
2018-05-13T16:32:02.200Z,32.60
2018-05-13T16:33:02.220Z,33.10
2018-05-13T16:34:55.166Z,35.10
2018-05-13T16:35:55.164Z,36.50
2018-05-13T16:37:48.118Z,38.40
2018-05-13T16:38:48.114Z,37.20
2018-05-13T16:40:41.050Z,38.30
2018-05-13T16:41:41.052Z,41.50
2018-05-13T16:43:34.005Z,38.10
2018-05-13T16:44:33.998Z,39.10
2018-05-13T16:46:26.929Z,40.80
2018-05-13T16:47:26.953Z,40.40
2018-05-13T16:49:19.912Z,39.00
2018-05-13T16:50:19.906Z,40.30
2018-05-13T16:52:12.864Z,39.90
2018-05-13T16:53:12.909Z,40.60
2018-05-13T16:55:05.862Z,41.00
2018-05-13T16:56:05.835Z,43.50
2018-05-13T16:57:58.784Z,42.50
2018-05-13T16:58:58.793Z,43.50
2018-05-13T17:00:51.726Z,45.10
2018-05-13T17:01:51.735Z,52.30
2018-05-13T17:03:44.700Z,46.20
2018-05-13T17:04:44.692Z,46.80
2018-05-13T17:06:37.651Z,45.70
2018-05-13T17:07:37.638Z,46.50
2018-05-13T17:09:30.602Z,42.20
2018-05-13T17:10:30.724Z,44.00
2018-05-13T17:12:23.535Z,42.00
2018-05-13T17:13:23.541Z,44.50
2018-05-13T17:15:16.501Z,44.40
2018-05-13T17:16:16.490Z,46.10
2018-05-13T17:18:09.452Z,44.40
2018-05-13T17:19:09.433Z,47.00
2018-05-13T17:21:02.425Z,44.60
2018-05-13T17:22:02.430Z,44.20
2018-05-13T17:23:55.343Z,49.70
2018-05-13T17:24:55.368Z,43.70
2018-05-13T17:26:48.282Z,48.30
2018-05-13T17:27:48.296Z,50.50
2018-05-13T17:29:41.251Z,46.20
2018-05-13T17:30:41.308Z,48.30
2018-05-13T17:32:34.239Z,49.80
2018-05-13T17:33:34.203Z,51.70
2018-05-13T17:35:27.166Z,46.50
2018-05-13T17:36:27.160Z,47.60
2018-05-13T17:38:20.171Z,47.30
2018-05-13T17:39:20.227Z,49.90
2018-05-13T17:41:14.152Z,48.70
2018-05-13T17:42:14.105Z,48.00
2018-05-13T17:44:07.079Z,49.30
2018-05-13T17:45:07.058Z,49.30
2018-05-13T17:46:59.983Z,45.80
2018-05-13T17:48:00.035Z,49.70
2018-05-13T17:49:53.002Z,48.30
2018-05-13T17:50:52.950Z,49.00
2018-05-13T17:52:45.904Z,48.70
2018-05-13T17:53:45.914Z,47.80
2018-05-13T17:55:38.881Z,49.20
2018-05-13T17:56:38.867Z,47.60
2018-05-13T17:58:31.810Z,46.20
2018-05-13T17:59:31.883Z,46.90
2018-05-13T18:01:24.783Z,47.70
2018-05-13T18:02:24.814Z,46.90
2018-05-13T18:04:17.772Z,45.30
2018-05-13T18:05:17.712Z,45.00
2018-05-13T18:07:10.654Z,48.30
2018-05-13T18:08:10.659Z,44.10
2018-05-13T18:10:03.614Z,49.50
2018-05-13T18:11:03.607Z,46.70
2018-05-13T18:12:56.537Z,49.00
2018-05-13T18:13:56.552Z,44.70
2018-05-13T18:15:49.506Z,42.80
2018-05-13T18:16:49.503Z,43.90
2018-05-13T18:18:42.466Z,46.20
2018-05-13T18:19:42.487Z,44.70
2018-05-13T18:21:35.468Z,47.00
2018-05-13T18:22:35.430Z,44.10
2018-05-13T18:24:28.473Z,43.40
2018-05-13T18:25:28.421Z,45.30
2018-05-13T18:27:21.356Z,43.20
2018-05-13T18:28:21.391Z,43.00
2018-05-13T18:30:14.340Z,43.70
2018-05-13T18:31:14.327Z,42.10
2018-05-13T18:33:07.279Z,43.10
2018-05-13T18:34:07.298Z,45.30
2018-05-13T18:36:00.269Z,43.10
2018-05-13T18:37:00.259Z,43.90
2018-05-13T18:38:53.202Z,44.70
2018-05-13T18:39:53.213Z,42.70
2018-05-13T18:41:46.166Z,44.20
2018-05-13T18:42:46.160Z,43.90
2018-05-13T18:44:39.668Z,43.00
2018-05-13T18:45:39.605Z,42.40
2018-05-13T18:47:32.591Z,43.40
2018-05-13T18:48:32.578Z,43.50
2018-05-13T18:50:25.527Z,44.20
2018-05-13T18:51:25.520Z,41.80
2018-05-13T18:53:18.467Z,41.90
2018-05-13T18:54:18.533Z,41.20
2018-05-13T18:56:11.418Z,41.00
2018-05-13T18:57:11.436Z,42.20
2018-05-13T18:59:04.410Z,40.80
2018-05-13T19:00:04.363Z,42.50
2018-05-13T19:01:57.329Z,41.60
2018-05-13T19:02:57.314Z,44.00
2018-05-13T19:04:50.356Z,40.90
2018-05-13T19:05:50.316Z,42.50
2018-05-13T19:07:43.243Z,42.30
2018-05-13T19:08:43.259Z,37.80
2018-05-13T19:10:36.217Z,38.10
2018-05-13T19:11:36.226Z,40.10
2018-05-13T19:13:29.176Z,38.90
2018-05-13T19:14:29.188Z,40.20
2018-05-13T19:16:22.151Z,40.30
2018-05-13T19:17:22.193Z,37.30
2018-05-13T19:19:15.083Z,37.00
2018-05-13T19:20:15.094Z,35.70
2018-05-13T19:22:08.047Z,37.30
2018-05-13T19:23:08.046Z,36.20
2018-05-13T19:25:01.025Z,38.50
2018-05-13T19:26:01.021Z,36.20
2018-05-13T19:27:54.018Z,37.50
2018-05-13T19:28:53.993Z,34.80
2018-05-13T19:30:47.000Z,35.40
2018-05-13T19:31:46.967Z,36.80
2018-05-13T19:33:39.895Z,34.70
2018-05-13T19:34:39.911Z,34.10
2018-05-13T19:36:32.868Z,33.40
2018-05-13T19:37:32.860Z,35.20
2018-05-13T19:39:25.789Z,34.30
2018-05-13T19:40:25.802Z,34.90
2018-05-13T19:42:18.766Z,34.90
2018-05-13T19:43:18.764Z,34.70
2018-05-13T19:45:11.696Z,35.20
2018-05-13T19:46:11.695Z,34.00
2018-05-13T19:48:04.621Z,35.80
2018-05-13T19:49:04.634Z,34.60
2018-05-13T19:50:57.583Z,31.50
2018-05-13T19:51:57.601Z,35.60
2018-05-13T19:53:50.514Z,38.40
2018-05-13T19:54:50.525Z,33.40
2018-05-13T19:56:43.478Z,35.80
2018-05-13T19:57:43.467Z,34.30
2018-05-13T19:59:36.403Z,36.00
2018-05-13T20:00:36.412Z,36.00
2018-05-13T20:02:29.368Z,39.20
2018-05-13T20:03:29.523Z,34.90
2018-05-13T20:05:22.291Z,35.70
2018-05-13T20:06:22.301Z,38.10
2018-05-13T20:08:15.262Z,33.80
2018-05-13T20:09:15.327Z,36.50
2018-05-13T20:11:08.217Z,35.30
2018-05-13T20:12:08.219Z,33.10
2018-05-13T20:14:01.132Z,36.20
2018-05-13T20:15:01.171Z,36.90
2018-05-13T20:16:54.133Z,36.80
2018-05-13T20:17:54.098Z,35.00
2018-05-13T20:19:47.030Z,34.70
2018-05-13T20:20:47.041Z,37.80
2018-05-13T20:22:40.004Z,37.40
2018-05-13T20:23:40.000Z,37.60
2018-05-13T20:25:32.923Z,39.30
2018-05-13T20:26:32.931Z,37.50
2018-05-13T20:28:25.881Z,36.90
2018-05-13T20:29:25.880Z,38.60
2018-05-13T20:31:18.833Z,38.90
2018-05-13T20:32:18.838Z,40.60
2018-05-13T20:34:11.768Z,41.80
2018-05-13T20:35:11.784Z,40.90